sensor_id;sensor_type;location;lat;lon;timestamp;temperature;humidity
11647;DHT22;5880;52.342;9.662;2023-11-21T00:00:20;12.30;71.10
11647;DHT22;5880;52.342;9.662;2023-11-21T00:02:46;12.20;70.90
11647;DHT22;5880;52.342;9.662;2023-11-21T00:05:13;12.30;71.00
11647;DHT22;5880;52.342;9.662;2023-11-21T00:07:40;12.30;71.00
11647;DHT22;5880;52.342;9.662;2023-11-21T00:10:08;12.30;71.10
11647;DHT22;5880;52.342;9.662;2023-11-21T00:12:34;12.20;70.90
11647;DHT22;5880;52.342;9.662;2023-11-21T00:15:00;12.30;71.00
11647;DHT22;5880;52.342;9.662;2023-11-21T00:17:27;12.30;71.10
11647;DHT22;5880;52.342;9.662;2023-11-21T00:19:53;12.30;71.10
11647;DHT22;5880;52.342;9.662;2023-11-21T00:22:19;12.20;71.00
11647;DHT22;5880;52.342;9.662;2023-11-21T00:24:45;12.20;71.00
11647;DHT22;5880;52.342;9.662;2023-11-21T00:27:11;12.20;71.00
11647;DHT22;5880;52.342;9.662;2023-11-21T00:29:37;12.20;71.00
11647;DHT22;5880;52.342;9.662;2023-11-21T00:32:04;12.20;71.00
11647;DHT22;5880;52.342;9.662;2023-11-21T00:34:31;12.20;71.00
11647;DHT22;5880;52.342;9.662;2023-11-21T00:36:57;12.20;71.00
11647;DHT22;5880;52.342;9.662;2023-11-21T00:39:23;12.20;70.90
11647;DHT22;5880;52.342;9.662;2023-11-21T00:41:49;12.20;70.90
11647;DHT22;5880;52.342;9.662;2023-11-21T00:44:15;12.20;70.90
11647;DHT22;5880;52.342;9.662;2023-11-21T00:46:41;12.20;70.90
11647;DHT22;5880;52.342;9.662;2023-11-21T00:49:07;12.20;70.90
11647;DHT22;5880;52.342;9.662;2023-11-21T00:51:33;12.20;70.80
11647;DHT22;5880;52.342;9.662;2023-11-21T00:53:59;12.20;70.90
11647;DHT22;5880;52.342;9.662;2023-11-21T00:56:25;12.20;71.00
11647;DHT22;5880;52.342;9.662;2023-11-21T00:58:50;12.20;71.00
11647;DHT22;5880;52.342;9.662;2023-11-21T01:01:18;12.20;71.10
11647;DHT22;5880;52.342;9.662;2023-11-21T01:03:47;12.10;71.10
11647;DHT22;5880;52.342;9.662;2023-11-21T01:06:14;12.20;71.20
11647;DHT22;5880;52.342;9.662;2023-11-21T01:08:40;12.10;71.20
11647;DHT22;5880;52.342;9.662;2023-11-21T01:11:06;12.10;71.30
11647;DHT22;5880;52.342;9.662;2023-11-21T01:13:34;12.20;71.30
11647;DHT22;5880;52.342;9.662;2023-11-21T01:16:00;12.20;71.30
11647;DHT22;5880;52.342;9.662;2023-11-21T01:18:26;12.20;71.30
11647;DHT22;5880;52.342;9.662;2023-11-21T01:20:52;12.20;71.40
11647;DHT22;5880;52.342;9.662;2023-11-21T01:23:19;12.10;71.40
11647;DHT22;5880;52.342;9.662;2023-11-21T01:25:45;12.10;71.40
11647;DHT22;5880;52.342;9.662;2023-11-21T01:28:10;12.20;71.40
11647;DHT22;5880;52.342;9.662;2023-11-21T01:30:36;12.20;71.50
11647;DHT22;5880;52.342;9.662;2023-11-21T01:33:02;12.20;71.40
11647;DHT22;5880;52.342;9.662;2023-11-21T01:35:29;12.20;71.40
11647;DHT22;5880;52.342;9.662;2023-11-21T01:37:55;12.20;71.40
11647;DHT22;5880;52.342;9.662;2023-11-21T01:40:21;12.20;71.40
11647;DHT22;5880;52.342;9.662;2023-11-21T01:42:47;12.20;71.40
11647;DHT22;5880;52.342;9.662;2023-11-21T01:45:14;12.10;71.40
11647;DHT22;5880;52.342;9.662;2023-11-21T01:47:41;12.20;71.40
11647;DHT22;5880;52.342;9.662;2023-11-21T01:50:08;12.20;71.50
11647;DHT22;5880;52.342;9.662;2023-11-21T01:52:39;12.20;71.50
11647;DHT22;5880;52.342;9.662;2023-11-21T01:55:07;12.20;71.50
11647;DHT22;5880;52.342;9.662;2023-11-21T01:57:36;12.20;71.50
11647;DHT22;5880;52.342;9.662;2023-11-21T02:00:05;12.20;71.50
11647;DHT22;5880;52.342;9.662;2023-11-21T02:02:42;12.20;71.50
11647;DHT22;5880;52.342;9.662;2023-11-21T02:05:10;12.20;71.40
11647;DHT22;5880;52.342;9.662;2023-11-21T02:07:38;12.20;71.40
11647;DHT22;5880;52.342;9.662;2023-11-21T02:10:06;12.20;71.40
11647;DHT22;5880;52.342;9.662;2023-11-21T02:12:33;12.20;71.40
11647;DHT22;5880;52.342;9.662;2023-11-21T02:15:01;12.20;71.50
11647;DHT22;5880;52.342;9.662;2023-11-21T02:17:30;12.20;71.50
11647;DHT22;5880;52.342;9.662;2023-11-21T02:19:57;12.20;71.50
11647;DHT22;5880;52.342;9.662;2023-11-21T02:22:25;12.10;71.60
11647;DHT22;5880;52.342;9.662;2023-11-21T02:24:54;12.10;71.60
11647;DHT22;5880;52.342;9.662;2023-11-21T02:27:20;12.10;71.60
11647;DHT22;5880;52.342;9.662;2023-11-21T02:29:48;12.10;71.60
11647;DHT22;5880;52.342;9.662;2023-11-21T02:32:14;12.10;71.70
11647;DHT22;5880;52.342;9.662;2023-11-21T02:34:42;12.10;71.60
11647;DHT22;5880;52.342;9.662;2023-11-21T02:37:08;12.10;71.60
11647;DHT22;5880;52.342;9.662;2023-11-21T02:39:35;12.10;72.40
11647;DHT22;5880;52.342;9.662;2023-11-21T02:42:01;12.10;71.60
11647;DHT22;5880;52.342;9.662;2023-11-21T02:44:26;12.10;71.60
11647;DHT22;5880;52.342;9.662;2023-11-21T02:46:52;12.10;71.60
11647;DHT22;5880;52.342;9.662;2023-11-21T02:49:18;12.20;71.60
11647;DHT22;5880;52.342;9.662;2023-11-21T02:51:43;12.20;71.60
11647;DHT22;5880;52.342;9.662;2023-11-21T02:54:09;12.20;71.60
11647;DHT22;5880;52.342;9.662;2023-11-21T02:56:35;12.20;71.60
11647;DHT22;5880;52.342;9.662;2023-11-21T02:59:01;12.40;71.80
11647;DHT22;5880;52.342;9.662;2023-11-21T03:01:27;12.20;71.60
11647;DHT22;5880;52.342;9.662;2023-11-21T03:03:53;12.20;71.60
11647;DHT22;5880;52.342;9.662;2023-11-21T03:06:20;12.20;71.60
11647;DHT22;5880;52.342;9.662;2023-11-21T03:08:46;12.20;71.60
11647;DHT22;5880;52.342;9.662;2023-11-21T03:11:12;12.20;71.70
11647;DHT22;5880;52.342;9.662;2023-11-21T03:13:39;12.20;71.80
11647;DHT22;5880;52.342;9.662;2023-11-21T03:16:10;12.20;71.80
11647;DHT22;5880;52.342;9.662;2023-11-21T03:18:38;12.20;71.80
11647;DHT22;5880;52.342;9.662;2023-11-21T03:21:05;12.20;71.80
11647;DHT22;5880;52.342;9.662;2023-11-21T03:23:31;12.20;71.70
11647;DHT22;5880;52.342;9.662;2023-11-21T03:25:57;12.20;71.60
11647;DHT22;5880;52.342;9.662;2023-11-21T03:28:23;12.20;71.60
11647;DHT22;5880;52.342;9.662;2023-11-21T03:30:49;12.20;71.70
11647;DHT22;5880;52.342;9.662;2023-11-21T03:33:15;12.30;71.90
11647;DHT22;5880;52.342;9.662;2023-11-21T03:35:40;12.20;71.80
11647;DHT22;5880;52.342;9.662;2023-11-21T03:38:07;12.30;71.90
11647;DHT22;5880;52.342;9.662;2023-11-21T03:40:35;12.30;71.90
11647;DHT22;5880;52.342;9.662;2023-11-21T03:43:00;12.30;71.90
11647;DHT22;5880;52.342;9.662;2023-11-21T03:45:26;12.20;71.80
11647;DHT22;5880;52.342;9.662;2023-11-21T03:47:52;12.30;71.90
11647;DHT22;5880;52.342;9.662;2023-11-21T03:50:17;12.30;71.90
11647;DHT22;5880;52.342;9.662;2023-11-21T03:52:43;12.30;71.90
11647;DHT22;5880;52.342;9.662;2023-11-21T03:55:09;12.30;72.00
11647;DHT22;5880;52.342;9.662;2023-11-21T03:57:36;12.30;72.00
11647;DHT22;5880;52.342;9.662;2023-11-21T04:00:02;12.30;71.90
11647;DHT22;5880;52.342;9.662;2023-11-21T04:02:29;12.30;71.90
11647;DHT22;5880;52.342;9.662;2023-11-21T04:04:57;12.30;72.00
11647;DHT22;5880;52.342;9.662;2023-11-21T04:07:22;12.30;72.00
11647;DHT22;5880;52.342;9.662;2023-11-21T04:09:48;12.30;72.00
11647;DHT22;5880;52.342;9.662;2023-11-21T04:12:14;12.30;72.00
11647;DHT22;5880;52.342;9.662;2023-11-21T04:14:39;12.30;72.00
11647;DHT22;5880;52.342;9.662;2023-11-21T04:17:05;12.20;71.90
11647;DHT22;5880;52.342;9.662;2023-11-21T04:19:31;12.30;72.00
11647;DHT22;5880;52.342;9.662;2023-11-21T04:21:57;12.30;72.00
11647;DHT22;5880;52.342;9.662;2023-11-21T04:24:23;12.20;71.90
11647;DHT22;5880;52.342;9.662;2023-11-21T04:26:48;12.90;72.40
11647;DHT22;5880;52.342;9.662;2023-11-21T04:29:14;12.20;72.00
11647;DHT22;5880;52.342;9.662;2023-11-21T04:31:39;12.20;72.00
11647;DHT22;5880;52.342;9.662;2023-11-21T04:34:06;12.20;72.00
11647;DHT22;5880;52.342;9.662;2023-11-21T04:36:32;12.20;72.10
11647;DHT22;5880;52.342;9.662;2023-11-21T04:38:58;12.20;72.10
11647;DHT22;5880;52.342;9.662;2023-11-21T04:41:24;12.20;72.10
11647;DHT22;5880;52.342;9.662;2023-11-21T04:43:49;12.20;72.10
11647;DHT22;5880;52.342;9.662;2023-11-21T04:46:15;12.20;72.10
11647;DHT22;5880;52.342;9.662;2023-11-21T04:48:40;12.20;72.20
11647;DHT22;5880;52.342;9.662;2023-11-21T04:51:06;12.20;72.20
11647;DHT22;5880;52.342;9.662;2023-11-21T04:53:32;12.20;72.30
11647;DHT22;5880;52.342;9.662;2023-11-21T04:55:58;12.20;72.40
11647;DHT22;5880;52.342;9.662;2023-11-21T04:58:24;12.20;72.40
11647;DHT22;5880;52.342;9.662;2023-11-21T05:00:49;12.20;72.40
11647;DHT22;5880;52.342;9.662;2023-11-21T05:03:15;12.20;72.40
11647;DHT22;5880;52.342;9.662;2023-11-21T05:05:41;12.20;72.40
11647;DHT22;5880;52.342;9.662;2023-11-21T05:08:06;12.20;72.40
11647;DHT22;5880;52.342;9.662;2023-11-21T05:10:32;12.20;73.20
11647;DHT22;5880;52.342;9.662;2023-11-21T05:12:58;12.20;72.50
11647;DHT22;5880;52.342;9.662;2023-11-21T05:15:24;12.20;72.50
11647;DHT22;5880;52.342;9.662;2023-11-21T05:17:50;12.20;73.20
11647;DHT22;5880;52.342;9.662;2023-11-21T05:20:17;12.20;72.50
11647;DHT22;5880;52.342;9.662;2023-11-21T05:22:46;12.20;72.50
11647;DHT22;5880;52.342;9.662;2023-11-21T05:25:16;12.20;72.40
11647;DHT22;5880;52.342;9.662;2023-11-21T05:27:44;12.20;72.50
11647;DHT22;5880;52.342;9.662;2023-11-21T05:30:13;12.20;72.50
11647;DHT22;5880;52.342;9.662;2023-11-21T05:32:40;12.20;72.50
11647;DHT22;5880;52.342;9.662;2023-11-21T05:35:10;12.20;72.50
11647;DHT22;5880;52.342;9.662;2023-11-21T05:37:40;12.20;72.50
11647;DHT22;5880;52.342;9.662;2023-11-21T05:40:07;12.20;72.50
11647;DHT22;5880;52.342;9.662;2023-11-21T05:42:34;12.10;72.50
11647;DHT22;5880;52.342;9.662;2023-11-21T05:45:01;12.20;72.50
11647;DHT22;5880;52.342;9.662;2023-11-21T05:47:38;12.20;72.50
11647;DHT22;5880;52.342;9.662;2023-11-21T05:50:15;12.20;72.60
11647;DHT22;5880;52.342;9.662;2023-11-21T05:52:46;12.20;72.50
11647;DHT22;5880;52.342;9.662;2023-11-21T05:55:13;12.20;72.50
11647;DHT22;5880;52.342;9.662;2023-11-21T05:57:40;12.20;72.50
11647;DHT22;5880;52.342;9.662;2023-11-21T06:00:09;12.10;72.50
11647;DHT22;5880;52.342;9.662;2023-11-21T06:02:45;12.10;72.50
11647;DHT22;5880;52.342;9.662;2023-11-21T06:05:11;12.20;72.50
11647;DHT22;5880;52.342;9.662;2023-11-21T06:07:38;12.10;72.50
11647;DHT22;5880;52.342;9.662;2023-11-21T06:10:04;12.10;72.50
11647;DHT22;5880;52.342;9.662;2023-11-21T06:12:32;12.10;72.50
11647;DHT22;5880;52.342;9.662;2023-11-21T06:15:04;12.60;72.80
11647;DHT22;5880;52.342;9.662;2023-11-21T06:17:32;12.10;72.60
11647;DHT22;5880;52.342;9.662;2023-11-21T06:19:59;12.10;72.60
11647;DHT22;5880;52.342;9.662;2023-11-21T06:22:26;12.10;72.70
11647;DHT22;5880;52.342;9.662;2023-11-21T06:24:51;12.10;72.70
11647;DHT22;5880;52.342;9.662;2023-11-21T06:27:17;12.10;72.80
11647;DHT22;5880;52.342;9.662;2023-11-21T06:29:43;12.10;72.80
11647;DHT22;5880;52.342;9.662;2023-11-21T06:32:09;12.10;72.80
11647;DHT22;5880;52.342;9.662;2023-11-21T06:34:34;12.10;72.80
11647;DHT22;5880;52.342;9.662;2023-11-21T06:37:00;12.10;72.80
11647;DHT22;5880;52.342;9.662;2023-11-21T06:39:26;12.10;72.70
11647;DHT22;5880;52.342;9.662;2023-11-21T06:41:52;12.10;72.70
11647;DHT22;5880;52.342;9.662;2023-11-21T06:44:18;12.10;72.70
11647;DHT22;5880;52.342;9.662;2023-11-21T06:46:45;12.10;72.70
11647;DHT22;5880;52.342;9.662;2023-11-21T06:49:10;12.10;72.80
11647;DHT22;5880;52.342;9.662;2023-11-21T06:51:36;12.10;72.80
11647;DHT22;5880;52.342;9.662;2023-11-21T06:54:02;12.10;72.80
11647;DHT22;5880;52.342;9.662;2023-11-21T06:56:28;12.10;72.80
11647;DHT22;5880;52.342;9.662;2023-11-21T06:58:53;12.10;72.80
11647;DHT22;5880;52.342;9.662;2023-11-21T07:01:19;12.10;72.80
11647;DHT22;5880;52.342;9.662;2023-11-21T07:03:45;12.10;72.80
11647;DHT22;5880;52.342;9.662;2023-11-21T07:06:11;12.10;72.70
11647;DHT22;5880;52.342;9.662;2023-11-21T07:08:37;12.10;72.40
11647;DHT22;5880;52.342;9.662;2023-11-21T07:11:04;12.00;71.90
11647;DHT22;5880;52.342;9.662;2023-11-21T07:13:30;12.00;71.50
11647;DHT22;5880;52.342;9.662;2023-11-21T07:15:57;11.90;71.30
11647;DHT22;5880;52.342;9.662;2023-11-21T07:18:24;11.80;71.20
11647;DHT22;5880;52.342;9.662;2023-11-21T07:20:49;11.70;71.20
11647;DHT22;5880;52.342;9.662;2023-11-21T07:23:15;11.70;71.30
11647;DHT22;5880;52.342;9.662;2023-11-21T07:25:41;11.60;71.30
11647;DHT22;5880;52.342;9.662;2023-11-21T07:28:08;11.60;71.30
11647;DHT22;5880;52.342;9.662;2023-11-21T07:30:34;11.50;71.30
11647;DHT22;5880;52.342;9.662;2023-11-21T07:33:00;11.40;71.30
11647;DHT22;5880;52.342;9.662;2023-11-21T07:35:26;11.30;71.20
11647;DHT22;5880;52.342;9.662;2023-11-21T07:37:52;11.20;71.10
11647;DHT22;5880;52.342;9.662;2023-11-21T07:40:17;11.20;71.40
11647;DHT22;5880;52.342;9.662;2023-11-21T07:42:43;11.10;71.60
11647;DHT22;5880;52.342;9.662;2023-11-21T07:45:09;11.00;71.70
11647;DHT22;5880;52.342;9.662;2023-11-21T07:47:35;11.00;71.70
11647;DHT22;5880;52.342;9.662;2023-11-21T07:50:03;11.00;71.80
11647;DHT22;5880;52.342;9.662;2023-11-21T07:52:30;10.90;71.90
11647;DHT22;5880;52.342;9.662;2023-11-21T07:54:56;10.90;72.00
11647;DHT22;5880;52.342;9.662;2023-11-21T07:57:21;10.90;72.10
11647;DHT22;5880;52.342;9.662;2023-11-21T07:59:47;10.80;72.00
11647;DHT22;5880;52.342;9.662;2023-11-21T08:02:13;10.80;72.00
11647;DHT22;5880;52.342;9.662;2023-11-21T08:04:38;10.80;72.10
11647;DHT22;5880;52.342;9.662;2023-11-21T08:07:04;10.80;72.20
11647;DHT22;5880;52.342;9.662;2023-11-21T08:09:29;10.80;72.20
11647;DHT22;5880;52.342;9.662;2023-11-21T08:11:55;10.70;72.20
11647;DHT22;5880;52.342;9.662;2023-11-21T08:14:22;10.70;72.30
11647;DHT22;5880;52.342;9.662;2023-11-21T08:16:50;10.70;72.20
11647;DHT22;5880;52.342;9.662;2023-11-21T08:19:16;10.70;72.20
11647;DHT22;5880;52.342;9.662;2023-11-21T08:21:43;10.70;72.30
11647;DHT22;5880;52.342;9.662;2023-11-21T08:24:10;10.70;72.40
11647;DHT22;5880;52.342;9.662;2023-11-21T08:26:37;10.70;72.40
11647;DHT22;5880;52.342;9.662;2023-11-21T08:29:03;10.70;72.40
11647;DHT22;5880;52.342;9.662;2023-11-21T08:31:29;10.60;72.30
11647;DHT22;5880;52.342;9.662;2023-11-21T08:33:55;10.60;72.30
11647;DHT22;5880;52.342;9.662;2023-11-21T08:36:22;10.60;72.30
11647;DHT22;5880;52.342;9.662;2023-11-21T08:38:50;10.60;72.30
11647;DHT22;5880;52.342;9.662;2023-11-21T08:41:17;10.60;72.30
11647;DHT22;5880;52.342;9.662;2023-11-21T08:43:47;10.60;72.30
11647;DHT22;5880;52.342;9.662;2023-11-21T08:46:16;10.60;72.30
11647;DHT22;5880;52.342;9.662;2023-11-21T08:48:43;10.60;72.40
11647;DHT22;5880;52.342;9.662;2023-11-21T08:51:10;10.60;72.40
11647;DHT22;5880;52.342;9.662;2023-11-21T08:53:42;10.60;72.50
11647;DHT22;5880;52.342;9.662;2023-11-21T08:56:11;10.60;72.60
11647;DHT22;5880;52.342;9.662;2023-11-21T08:58:37;10.60;72.60
11647;DHT22;5880;52.342;9.662;2023-11-21T09:01:04;10.60;72.50
11647;DHT22;5880;52.342;9.662;2023-11-21T09:03:31;10.60;72.30
11647;DHT22;5880;52.342;9.662;2023-11-21T09:05:59;10.60;72.20
11647;DHT22;5880;52.342;9.662;2023-11-21T09:08:25;10.60;73.00
11647;DHT22;5880;52.342;9.662;2023-11-21T09:10:50;10.60;72.20
11647;DHT22;5880;52.342;9.662;2023-11-21T09:13:17;10.60;72.30
11647;DHT22;5880;52.342;9.662;2023-11-21T09:15:43;10.60;72.40
11647;DHT22;5880;52.342;9.662;2023-11-21T09:18:15;10.60;72.40
11647;DHT22;5880;52.342;9.662;2023-11-21T09:20:41;10.70;72.30
11647;DHT22;5880;52.342;9.662;2023-11-21T09:23:09;10.70;72.10
11647;DHT22;5880;52.342;9.662;2023-11-21T09:25:37;10.70;72.00
11647;DHT22;5880;52.342;9.662;2023-11-21T09:28:04;10.70;72.00
11647;DHT22;5880;52.342;9.662;2023-11-21T09:30:34;10.70;71.70
11647;DHT22;5880;52.342;9.662;2023-11-21T09:33:01;10.70;71.70
11647;DHT22;5880;52.342;9.662;2023-11-21T09:35:27;10.70;71.60
11647;DHT22;5880;52.342;9.662;2023-11-21T09:37:53;10.70;71.30
11647;DHT22;5880;52.342;9.662;2023-11-21T09:40:21;10.70;71.30
11647;DHT22;5880;52.342;9.662;2023-11-21T09:42:55;10.70;71.50
11647;DHT22;5880;52.342;9.662;2023-11-21T09:45:31;10.70;71.50
11647;DHT22;5880;52.342;9.662;2023-11-21T09:48:00;10.80;71.40
11647;DHT22;5880;52.342;9.662;2023-11-21T09:50:27;10.80;71.40
11647;DHT22;5880;52.342;9.662;2023-11-21T09:53:18;10.80;71.20
11647;DHT22;5880;52.342;9.662;2023-11-21T09:55:51;10.80;70.90
11647;DHT22;5880;52.342;9.662;2023-11-21T09:58:19;10.80;71.20
11647;DHT22;5880;52.342;9.662;2023-11-21T10:00:47;10.80;71.30
11647;DHT22;5880;52.342;9.662;2023-11-21T10:03:15;10.80;71.40
11647;DHT22;5880;52.342;9.662;2023-11-21T10:05:43;10.80;71.20
11647;DHT22;5880;52.342;9.662;2023-11-21T10:08:11;10.80;70.80
11647;DHT22;5880;52.342;9.662;2023-11-21T10:10:45;10.80;70.90
11647;DHT22;5880;52.342;9.662;2023-11-21T10:13:13;10.90;70.80
11647;DHT22;5880;52.342;9.662;2023-11-21T10:15:42;10.90;70.70
11647;DHT22;5880;52.342;9.662;2023-11-21T10:18:14;10.90;70.70
11647;DHT22;5880;52.342;9.662;2023-11-21T10:20:40;10.80;70.80
11647;DHT22;5880;52.342;9.662;2023-11-21T10:23:07;10.90;71.00
11647;DHT22;5880;52.342;9.662;2023-11-21T10:25:37;10.90;70.80
11647;DHT22;5880;52.342;9.662;2023-11-21T10:28:03;10.90;70.80
11647;DHT22;5880;52.342;9.662;2023-11-21T10:30:36;11.00;70.80
11647;DHT22;5880;52.342;9.662;2023-11-21T10:33:07;11.00;70.60
11647;DHT22;5880;52.342;9.662;2023-11-21T10:35:47;11.00;70.80
11647;DHT22;5880;52.342;9.662;2023-11-21T10:38:20;11.00;70.60
11647;DHT22;5880;52.342;9.662;2023-11-21T10:40:49;11.00;70.70
11647;DHT22;5880;52.342;9.662;2023-11-21T10:43:16;11.00;70.10
11647;DHT22;5880;52.342;9.662;2023-11-21T10:45:43;11.00;69.00
11647;DHT22;5880;52.342;9.662;2023-11-21T10:48:15;11.00;68.80
11647;DHT22;5880;52.342;9.662;2023-11-21T10:50:42;11.00;68.70
11647;DHT22;5880;52.342;9.662;2023-11-21T10:53:09;11.10;69.20
11647;DHT22;5880;52.342;9.662;2023-11-21T10:55:37;11.10;69.20
11647;DHT22;5880;52.342;9.662;2023-11-21T10:58:04;11.00;69.60
11647;DHT22;5880;52.342;9.662;2023-11-21T11:00:31;11.10;69.70
11647;DHT22;5880;52.342;9.662;2023-11-21T11:02:58;11.10;69.60
11647;DHT22;5880;52.342;9.662;2023-11-21T11:05:27;11.10;69.70
11647;DHT22;5880;52.342;9.662;2023-11-21T11:08:05;11.10;69.40
11647;DHT22;5880;52.342;9.662;2023-11-21T11:10:34;11.10;69.30
11647;DHT22;5880;52.342;9.662;2023-11-21T11:13:00;11.20;68.70
11647;DHT22;5880;52.342;9.662;2023-11-21T11:15:27;11.10;68.60
11647;DHT22;5880;52.342;9.662;2023-11-21T11:17:54;11.10;69.20
11647;DHT22;5880;52.342;9.662;2023-11-21T11:20:25;11.10;69.30
11647;DHT22;5880;52.342;9.662;2023-11-21T11:28:51;11.20;68.70
11647;DHT22;5880;52.342;9.662;2023-11-21T11:31:55;11.20;68.30
11647;DHT22;5880;52.342;9.662;2023-11-21T11:34:56;11.20;68.00
11647;DHT22;5880;52.342;9.662;2023-11-21T11:37:29;11.20;66.50
11647;DHT22;5880;52.342;9.662;2023-11-21T11:39:55;11.20;68.30
11647;DHT22;5880;52.342;9.662;2023-11-21T11:42:22;11.30;68.60
11647;DHT22;5880;52.342;9.662;2023-11-21T11:44:50;11.30;68.90
11647;DHT22;5880;52.342;9.662;2023-11-21T11:47:30;11.30;69.20
11647;DHT22;5880;52.342;9.662;2023-11-21T11:50:06;11.30;69.50
11647;DHT22;5880;52.342;9.662;2023-11-21T11:52:40;11.40;69.40
11647;DHT22;5880;52.342;9.662;2023-11-21T11:55:08;11.40;69.00
11647;DHT22;5880;52.342;9.662;2023-11-21T11:57:45;11.40;69.10
11647;DHT22;5880;52.342;9.662;2023-11-21T12:00:22;11.50;69.10
11647;DHT22;5880;52.342;9.662;2023-11-21T12:03:01;11.50;68.90
11647;DHT22;5880;52.342;9.662;2023-11-21T12:05:32;11.50;68.50
11647;DHT22;5880;52.342;9.662;2023-11-21T12:08:07;11.50;68.40
11647;DHT22;5880;52.342;9.662;2023-11-21T12:10:34;11.40;67.70
11647;DHT22;5880;52.342;9.662;2023-11-21T12:15:33;11.40;67.90
11647;DHT22;5880;52.342;9.662;2023-11-21T12:18:00;11.50;68.30
11647;DHT22;5880;52.342;9.662;2023-11-21T12:20:27;11.40;68.40
11647;DHT22;5880;52.342;9.662;2023-11-21T12:23:02;11.50;68.20
11647;DHT22;5880;52.342;9.662;2023-11-21T12:25:30;11.50;68.10
11647;DHT22;5880;52.342;9.662;2023-11-21T12:28:00;11.50;68.40
11647;DHT22;5880;52.342;9.662;2023-11-21T12:30:30;11.50;68.10
11647;DHT22;5880;52.342;9.662;2023-11-21T12:32:58;11.50;67.40
11647;DHT22;5880;52.342;9.662;2023-11-21T12:35:27;11.50;67.60
11647;DHT22;5880;52.342;9.662;2023-11-21T12:37:55;11.40;66.70
11647;DHT22;5880;52.342;9.662;2023-11-21T12:40:22;11.40;67.10
11647;DHT22;5880;52.342;9.662;2023-11-21T12:42:54;11.40;66.90
11647;DHT22;5880;52.342;9.662;2023-11-21T12:45:25;11.40;67.10
11647;DHT22;5880;52.342;9.662;2023-11-21T12:47:58;11.40;67.00
11647;DHT22;5880;52.342;9.662;2023-11-21T12:50:27;11.30;67.50
11647;DHT22;5880;52.342;9.662;2023-11-21T12:53:08;11.30;67.80
11647;DHT22;5880;52.342;9.662;2023-11-21T12:55:38;11.40;67.80
11647;DHT22;5880;52.342;9.662;2023-11-21T12:58:05;11.30;67.60
11647;DHT22;5880;52.342;9.662;2023-11-21T13:00:46;11.30;67.40
11647;DHT22;5880;52.342;9.662;2023-11-21T13:03:14;11.30;67.40
11647;DHT22;5880;52.342;9.662;2023-11-21T13:05:51;11.30;67.50
11647;DHT22;5880;52.342;9.662;2023-11-21T13:08:24;11.30;68.60
11647;DHT22;5880;52.342;9.662;2023-11-21T13:10:53;11.30;68.10
11647;DHT22;5880;52.342;9.662;2023-11-21T13:13:22;11.30;68.10
11647;DHT22;5880;52.342;9.662;2023-11-21T13:15:53;11.40;68.00
11647;DHT22;5880;52.342;9.662;2023-11-21T13:18:27;11.40;68.10
11647;DHT22;5880;52.342;9.662;2023-11-21T13:20:54;11.40;68.40
11647;DHT22;5880;52.342;9.662;2023-11-21T13:23:24;11.40;68.40
11647;DHT22;5880;52.342;9.662;2023-11-21T13:25:52;11.40;67.80
11647;DHT22;5880;52.342;9.662;2023-11-21T13:28:18;11.40;67.50
11647;DHT22;5880;52.342;9.662;2023-11-21T13:30:46;11.50;67.90
11647;DHT22;5880;52.342;9.662;2023-11-21T13:33:13;11.40;67.80
11647;DHT22;5880;52.342;9.662;2023-11-21T13:35:44;11.40;67.90
11647;DHT22;5880;52.342;9.662;2023-11-21T13:38:15;11.40;67.90
11647;DHT22;5880;52.342;9.662;2023-11-21T13:40:50;11.40;67.80
11647;DHT22;5880;52.342;9.662;2023-11-21T13:43:21;11.40;67.70
11647;DHT22;5880;52.342;9.662;2023-11-21T13:45:50;11.40;67.90
11647;DHT22;5880;52.342;9.662;2023-11-21T13:48:21;11.40;67.80
11647;DHT22;5880;52.342;9.662;2023-11-21T13:50:53;11.40;67.90
11647;DHT22;5880;52.342;9.662;2023-11-21T13:53:38;11.40;68.00
11647;DHT22;5880;52.342;9.662;2023-11-21T13:56:07;11.40;67.90
11647;DHT22;5880;52.342;9.662;2023-11-21T13:58:33;11.40;67.40
11647;DHT22;5880;52.342;9.662;2023-11-21T14:01:15;11.40;67.30
11647;DHT22;5880;52.342;9.662;2023-11-21T14:04:02;11.30;67.10
11647;DHT22;5880;52.342;9.662;2023-11-21T14:06:42;11.30;67.50
11647;DHT22;5880;52.342;9.662;2023-11-21T14:09:15;11.30;67.50
11647;DHT22;5880;52.342;9.662;2023-11-21T14:11:53;11.30;67.60
11647;DHT22;5880;52.342;9.662;2023-11-21T14:14:23;11.20;67.50
11647;DHT22;5880;52.342;9.662;2023-11-21T14:16:51;11.20;67.20
11647;DHT22;5880;52.342;9.662;2023-11-21T14:19:18;11.20;66.70
11647;DHT22;5880;52.342;9.662;2023-11-21T14:21:44;11.20;67.50
11647;DHT22;5880;52.342;9.662;2023-11-21T14:24:12;11.20;66.90
11647;DHT22;5880;52.342;9.662;2023-11-21T14:26:40;11.10;67.00
11647;DHT22;5880;52.342;9.662;2023-11-21T14:29:07;11.10;66.10
11647;DHT22;5880;52.342;9.662;2023-11-21T14:31:34;11.10;66.30
11647;DHT22;5880;52.342;9.662;2023-11-21T14:34:00;11.10;66.80
11647;DHT22;5880;52.342;9.662;2023-11-21T14:36:31;11.00;66.50
11647;DHT22;5880;52.342;9.662;2023-11-21T14:38:57;11.00;66.40
11647;DHT22;5880;52.342;9.662;2023-11-21T14:41:22;11.00;66.60
11647;DHT22;5880;52.342;9.662;2023-11-21T14:43:53;11.00;66.90
11647;DHT22;5880;52.342;9.662;2023-11-21T14:46:20;11.00;67.10
11647;DHT22;5880;52.342;9.662;2023-11-21T14:48:46;11.00;67.40
11647;DHT22;5880;52.342;9.662;2023-11-21T14:51:25;11.00;67.50
11647;DHT22;5880;52.342;9.662;2023-11-21T14:53:54;11.00;67.30
11647;DHT22;5880;52.342;9.662;2023-11-21T14:56:23;11.00;66.90
11647;DHT22;5880;52.342;9.662;2023-11-21T14:58:54;11.00;66.90
11647;DHT22;5880;52.342;9.662;2023-11-21T15:01:22;10.90;66.80
11647;DHT22;5880;52.342;9.662;2023-11-21T15:04:08;10.90;67.00
11647;DHT22;5880;52.342;9.662;2023-11-21T15:06:40;10.90;67.10
11647;DHT22;5880;52.342;9.662;2023-11-21T15:09:08;10.90;67.30
11647;DHT22;5880;52.342;9.662;2023-11-21T15:11:34;10.90;67.50
11647;DHT22;5880;52.342;9.662;2023-11-21T15:14:03;10.90;67.50
11647;DHT22;5880;52.342;9.662;2023-11-21T15:16:35;10.90;67.20
11647;DHT22;5880;52.342;9.662;2023-11-21T15:19:06;10.80;66.90
11647;DHT22;5880;52.342;9.662;2023-11-21T15:21:32;10.80;67.00
11647;DHT22;5880;52.342;9.662;2023-11-21T15:23:58;10.80;66.60
11647;DHT22;5880;52.342;9.662;2023-11-21T15:26:23;10.80;66.70
11647;DHT22;5880;52.342;9.662;2023-11-21T15:28:49;10.70;66.70
11647;DHT22;5880;52.342;9.662;2023-11-21T15:31:15;10.70;66.90
11647;DHT22;5880;52.342;9.662;2023-11-21T15:33:47;10.70;67.00
11647;DHT22;5880;52.342;9.662;2023-11-21T15:36:13;10.70;67.00
11647;DHT22;5880;52.342;9.662;2023-11-21T15:38:40;10.60;66.60
11647;DHT22;5880;52.342;9.662;2023-11-21T15:41:06;10.60;67.40
11647;DHT22;5880;52.342;9.662;2023-11-21T15:43:35;10.60;66.80
11647;DHT22;5880;52.342;9.662;2023-11-21T15:46:01;10.50;66.80
11647;DHT22;5880;52.342;9.662;2023-11-21T15:48:31;10.50;66.90
11647;DHT22;5880;52.342;9.662;2023-11-21T15:50:57;10.50;67.10
11647;DHT22;5880;52.342;9.662;2023-11-21T15:53:24;10.50;67.30
11647;DHT22;5880;52.342;9.662;2023-11-21T15:55:50;10.50;67.20
11647;DHT22;5880;52.342;9.662;2023-11-21T15:58:17;10.50;67.70